sensor_id;sensor_type;location;lat;lon;timestamp;pressure;altitude;pressure_sealevel;temperature;humidity
68075;BME280;54864;52.002;5.468;2023-03-04T00:00:28;102524.97;;;7.87;61.73
68075;BME280;54864;52.002;5.468;2023-03-04T00:01:29;102522.31;;;7.90;61.22
68075;BME280;54864;52.002;5.468;2023-03-04T00:02:31;102528.47;;;7.88;60.94
68075;BME280;54864;52.002;5.468;2023-03-04T00:03:31;102527.63;;;7.84;60.99
68075;BME280;54864;52.002;5.468;2023-03-04T00:04:33;102532.00;;;7.79;61.89
68075;BME280;54864;52.002;5.468;2023-03-04T00:05:36;102528.41;;;7.97;61.24
68075;BME280;54864;52.002;5.468;2023-03-04T00:06:38;102531.97;;;7.90;61.60
68075;BME280;54864;52.002;5.468;2023-03-04T00:07:39;102525.75;;;8.00;61.52
68075;BME280;54864;52.002;5.468;2023-03-04T00:08:40;102521.31;;;8.07;61.27
68075;BME280;54864;52.002;5.468;2023-03-04T00:09:43;102530.94;;;8.11;61.00
68075;BME280;54864;52.002;5.468;2023-03-04T00:10:45;102525.66;;;8.11;60.76
68075;BME280;54864;52.002;5.468;2023-03-04T00:11:46;102530.00;;;8.18;60.50
68075;BME280;54864;52.002;5.468;2023-03-04T00:12:48;102533.47;;;8.20;60.77
68075;BME280;54864;52.002;5.468;2023-03-04T00:13:48;102527.38;;;8.16;61.46
68075;BME280;54864;52.002;5.468;2023-03-04T00:14:50;102532.78;;;7.97;61.71
68075;BME280;54864;52.002;5.468;2023-03-04T00:15:51;102524.94;;;7.92;61.27
68075;BME280;54864;52.002;5.468;2023-03-04T00:16:53;102526.66;;;7.98;61.98
68075;BME280;54864;52.002;5.468;2023-03-04T00:17:54;102537.22;;;7.87;61.50
68075;BME280;54864;52.002;5.468;2023-03-04T00:18:56;102539.25;;;7.33;63.02
68075;BME280;54864;52.002;5.468;2023-03-04T00:19:57;102534.88;;;7.37;63.41
68075;BME280;54864;52.002;5.468;2023-03-04T00:21:00;102540.03;;;7.52;63.25
68075;BME280;54864;52.002;5.468;2023-03-04T00:22:01;102526.00;;;7.59;63.13
68075;BME280;54864;52.002;5.468;2023-03-04T00:23:03;102526.00;;;7.59;62.35
68075;BME280;54864;52.002;5.468;2023-03-04T00:24:04;102533.03;;;7.49;63.48
68075;BME280;54864;52.002;5.468;2023-03-04T00:25:06;102526.16;;;7.30;63.90
68075;BME280;54864;52.002;5.468;2023-03-04T00:26:07;102527.81;;;7.48;63.26
68075;BME280;54864;52.002;5.468;2023-03-04T00:27:09;102529.47;;;7.61;63.18
68075;BME280;54864;52.002;5.468;2023-03-04T00:28:10;102524.22;;;7.62;62.77
68075;BME280;54864;52.002;5.468;2023-03-04T00:29:12;102526.94;;;7.44;63.22
68075;BME280;54864;52.002;5.468;2023-03-04T00:30:12;102526.03;;;7.50;63.48
68075;BME280;54864;52.002;5.468;2023-03-04T00:31:14;102529.53;;;7.53;63.34
68075;BME280;54864;52.002;5.468;2023-03-04T00:32:15;102533.91;;;7.54;63.36
68075;BME280;54864;52.002;5.468;2023-03-04T00:33:17;102523.41;;;7.51;63.49
68075;BME280;54864;52.002;5.468;2023-03-04T00:34:18;102522.44;;;7.68;63.07
68075;BME280;54864;52.002;5.468;2023-03-04T00:35:20;102520.72;;;7.62;62.57
68075;BME280;54864;52.002;5.468;2023-03-04T00:36:22;102528.63;;;7.57;62.93
68075;BME280;54864;52.002;5.468;2023-03-04T00:37:24;102519.78;;;7.74;62.68
68075;BME280;54864;52.002;5.468;2023-03-04T00:38:25;102523.28;;;7.74;63.04
68075;BME280;54864;52.002;5.468;2023-03-04T00:39:27;102530.31;;;7.71;62.64
68075;BME280;54864;52.002;5.468;2023-03-04T00:40:28;102527.75;;;7.58;63.12
68075;BME280;54864;52.002;5.468;2023-03-04T00:41:30;102526.03;;;7.50;63.62
68075;BME280;54864;52.002;5.468;2023-03-04T00:42:30;102537.44;;;7.49;63.29
68075;BME280;54864;52.002;5.468;2023-03-04T00:43:32;102528.63;;;7.59;62.82
68075;BME280;54864;52.002;5.468;2023-03-04T00:44:33;102529.44;;;7.69;62.43
68075;BME280;54864;52.002;5.468;2023-03-04T00:45:34;102532.09;;;7.64;62.86
68075;BME280;54864;52.002;5.468;2023-03-04T00:46:35;102532.06;;;7.70;63.43
68075;BME280;54864;52.002;5.468;2023-03-04T00:47:37;102531.16;;;7.74;62.91
68075;BME280;54864;52.002;5.468;2023-03-04T00:48:38;102537.25;;;7.84;63.11
68075;BME280;54864;52.002;5.468;2023-03-04T00:49:39;102528.50;;;7.83;62.57
68075;BME280;54864;52.002;5.468;2023-03-04T00:50:40;102526.72;;;7.88;62.73
68075;BME280;54864;52.002;5.468;2023-03-04T00:51:44;102536.31;;;7.91;62.60
68075;BME280;54864;52.002;5.468;2023-03-04T00:52:44;102535.47;;;7.86;62.36
68075;BME280;54864;52.002;5.468;2023-03-04T00:53:46;102532.88;;;7.78;62.88
68075;BME280;54864;52.002;5.468;2023-03-04T00:54:48;102537.31;;;7.69;63.12
68075;BME280;54864;52.002;5.468;2023-03-04T00:55:49;102532.91;;;7.72;63.32
68075;BME280;54864;52.002;5.468;2023-03-04T00:56:50;102532.91;;;7.72;63.13
68075;BME280;54864;52.002;5.468;2023-03-04T00:57:51;102531.13;;;7.77;63.03
68075;BME280;54864;52.002;5.468;2023-03-04T00:58:53;102535.50;;;7.80;62.65
68075;BME280;54864;52.002;5.468;2023-03-04T00:59:54;102524.31;;;7.44;64.08
68075;BME280;54864;52.002;5.468;2023-03-04T01:00:56;102527.75;;;7.55;63.69
68075;BME280;54864;52.002;5.468;2023-03-04T01:01:56;102525.09;;;7.66;63.09
68075;BME280;54864;52.002;5.468;2023-03-04T01:02:58;102531.19;;;7.67;63.46
68075;BME280;54864;52.002;5.468;2023-03-04T01:03:59;102526.03;;;7.54;63.73
68075;BME280;54864;52.002;5.468;2023-03-04T01:05:01;102529.53;;;7.53;63.52
68075;BME280;54864;52.002;5.468;2023-03-04T01:06:02;102522.69;;;7.23;64.32
68075;BME280;54864;52.002;5.468;2023-03-04T01:07:05;102524.44;;;7.12;64.82
68075;BME280;54864;52.002;5.468;2023-03-04T01:08:06;102527.03;;;7.30;64.35
68075;BME280;54864;52.002;5.468;2023-03-04T01:09:08;102532.22;;;7.40;64.73
68075;BME280;54864;52.002;5.468;2023-03-04T01:10:10;102535.78;;;7.26;64.82
68075;BME280;54864;52.002;5.468;2023-03-04T01:11:12;102530.56;;;7.16;64.68
68075;BME280;54864;52.002;5.468;2023-03-04T01:12:13;102527.94;;;7.14;64.73
68075;BME280;54864;52.002;5.468;2023-03-04T01:13:15;102534.03;;;7.25;65.13
68075;BME280;54864;52.002;5.468;2023-03-04T01:14:16;102535.75;;;7.36;65.25
68075;BME280;54864;52.002;5.468;2023-03-04T01:15:18;102530.44;;;7.46;64.47
68075;BME280;54864;52.002;5.468;2023-03-04T01:16:18;102534.88;;;7.32;64.38
68075;BME280;54864;52.002;5.468;2023-03-04T01:17:21;102526.13;;;7.33;65.21
68075;BME280;54864;52.002;5.468;2023-03-04T01:18:22;102528.78;;;7.25;64.84
68075;BME280;54864;52.002;5.468;2023-03-04T01:19:24;102532.31;;;7.23;64.86
68075;BME280;54864;52.002;5.468;2023-03-04T01:20:24;102529.63;;;7.37;63.92
68075;BME280;54864;52.002;5.468;2023-03-04T01:21:26;102534.91;;;7.23;64.86
68075;BME280;54864;52.002;5.468;2023-03-04T01:22:28;102525.31;;;7.20;64.83
68075;BME280;54864;52.002;5.468;2023-03-04T01:23:30;102533.16;;;7.25;64.32
68075;BME280;54864;52.002;5.468;2023-03-04T01:24:31;102532.31;;;7.18;64.62
68075;BME280;54864;52.002;5.468;2023-03-04T01:25:33;102527.00;;;7.35;64.56
68075;BME280;54864;52.002;5.468;2023-03-04T01:26:34;102526.97;;;7.40;64.57
68075;BME280;54864;52.002;5.468;2023-03-04T01:27:36;102529.59;;;7.43;64.54
68075;BME280;54864;52.002;5.468;2023-03-04T01:28:37;102526.97;;;7.43;64.38
68075;BME280;54864;52.002;5.468;2023-03-04T01:29:39;102528.72;;;7.38;64.21
68075;BME280;54864;52.002;5.468;2023-03-04T01:30:40;102524.34;;;7.41;64.21
68075;BME280;54864;52.002;5.468;2023-03-04T01:31:42;102519.09;;;7.41;64.15
68075;BME280;54864;52.002;5.468;2023-03-04T01:32:43;102523.47;;;7.44;64.59
68075;BME280;54864;52.002;5.468;2023-03-04T01:33:45;102522.56;;;7.49;63.98
68075;BME280;54864;52.002;5.468;2023-03-04T01:34:46;102507.72;;;7.41;64.00
68075;BME280;54864;52.002;5.468;2023-03-04T01:35:48;102513.00;;;7.36;63.88
68075;BME280;54864;52.002;5.468;2023-03-04T01:36:49;102509.56;;;7.22;64.48
68075;BME280;54864;52.002;5.468;2023-03-04T01:37:52;102511.28;;;7.29;64.58
68075;BME280;54864;52.002;5.468;2023-03-04T01:38:53;102513.03;;;7.31;64.85
68075;BME280;54864;52.002;5.468;2023-03-04T01:39:55;102505.22;;;7.19;64.63
68075;BME280;54864;52.002;5.468;2023-03-04T01:40:56;102506.00;;;7.38;64.37
68075;BME280;54864;52.002;5.468;2023-03-04T01:41:57;102504.31;;;7.22;64.11
68075;BME280;54864;52.002;5.468;2023-03-04T01:42:58;102498.13;;;7.38;64.63
68075;BME280;54864;52.002;5.468;2023-03-04T01:44:00;102498.97;;;7.42;64.12
68075;BME280;54864;52.002;5.468;2023-03-04T01:45:02;102502.41;;;7.54;63.59
68075;BME280;54864;52.002;5.468;2023-03-04T01:46:05;102504.19;;;7.48;64.07
68075;BME280;54864;52.002;5.468;2023-03-04T01:47:08;102501.56;;;7.49;64.02
68075;BME280;54864;52.002;5.468;2023-03-04T01:48:12;102498.13;;;7.40;63.99
68075;BME280;54864;52.002;5.468;2023-03-04T01:49:14;102501.63;;;7.37;63.91
68075;BME280;54864;52.002;5.468;2023-03-04T01:50:21;102495.53;;;7.30;64.50
68075;BME280;54864;52.002;5.468;2023-03-04T01:51:23;102492.00;;;7.36;64.09
68075;BME280;54864;52.002;5.468;2023-03-04T01:52:26;102491.13;;;7.37;64.57
68075;BME280;54864;52.002;5.468;2023-03-04T01:53:29;102489.41;;;7.33;64.36
68075;BME280;54864;52.002;5.468;2023-03-04T01:54:31;102487.53;;;7.55;64.75
68075;BME280;54864;52.002;5.468;2023-03-04T01:55:32;102490.94;;;7.66;63.49
68075;BME280;54864;52.002;5.468;2023-03-04T01:56:35;102494.41;;;7.71;63.35
68075;BME280;54864;52.002;5.468;2023-03-04T01:57:38;102483.91;;;7.74;63.66
68075;BME280;54864;52.002;5.468;2023-03-04T01:58:40;102481.22;;;7.88;62.97
68075;BME280;54864;52.002;5.468;2023-03-04T01:59:41;102490.78;;;7.93;63.03
68075;BME280;54864;52.002;5.468;2023-03-04T02:00:43;102482.16;;;7.73;62.89
68075;BME280;54864;52.002;5.468;2023-03-04T02:01:45;102482.22;;;7.62;64.13
68075;BME280;54864;52.002;5.468;2023-03-04T02:02:49;102480.38;;;7.77;63.58
68075;BME280;54864;52.002;5.468;2023-03-04T02:03:50;102470.75;;;7.77;64.15
68075;BME280;54864;52.002;5.468;2023-03-04T02:04:52;102476.91;;;7.73;63.47
68075;BME280;54864;52.002;5.468;2023-03-04T02:05:54;102475.28;;;7.54;64.33
68075;BME280;54864;52.002;5.468;2023-03-04T02:06:57;102478.75;;;7.60;63.96
68075;BME280;54864;52.002;5.468;2023-03-04T02:07:59;102476.91;;;7.72;63.75
68075;BME280;54864;52.002;5.468;2023-03-04T02:09:04;102474.28;;;7.72;63.68
68075;BME280;54864;52.002;5.468;2023-03-04T02:10:07;102475.16;;;7.74;63.16
68075;BME280;54864;52.002;5.468;2023-03-04T02:11:09;102474.25;;;7.81;63.41
68075;BME280;54864;52.002;5.468;2023-03-04T02:12:11;102471.78;;;7.53;63.97
68075;BME280;54864;52.002;5.468;2023-03-04T02:13:12;102472.56;;;7.68;63.83
68075;BME280;54864;52.002;5.468;2023-03-04T02:14:16;102468.13;;;7.76;63.76
68075;BME280;54864;52.002;5.468;2023-03-04T02:15:17;102466.38;;;7.81;63.79
68075;BME280;54864;52.002;5.468;2023-03-04T02:16:19;102470.03;;;7.57;63.45
68075;BME280;54864;52.002;5.468;2023-03-04T02:17:23;102466.53;;;7.53;63.91
68075;BME280;54864;52.002;5.468;2023-03-04T02:18:25;102467.47;;;7.46;64.42
68075;BME280;54864;52.002;5.468;2023-03-04T02:19:36;102471.81;;;7.47;63.95
68075;BME280;54864;52.002;5.468;2023-03-04T02:20:48;102470.03;;;7.57;63.84
68075;BME280;54864;52.002;5.468;2023-03-04T02:21:50;102467.53;;;7.34;63.90
68075;BME280;54864;52.002;5.468;2023-03-04T02:22:58;102464.88;;;7.40;64.17
68075;BME280;54864;52.002;5.468;2023-03-04T02:24:08;102457.78;;;7.54;63.94
68075;BME280;54864;52.002;5.468;2023-03-04T02:25:15;102470.94;;;7.50;64.23
68075;BME280;54864;52.002;5.468;2023-03-04T02:26:20;102463.13;;;7.42;63.91
68075;BME280;54864;52.002;5.468;2023-03-04T02:27:23;102456.16;;;7.37;64.43
68075;BME280;54864;52.002;5.468;2023-03-04T02:28:23;102464.91;;;7.36;64.20
68075;BME280;54864;52.002;5.468;2023-03-04T02:29:27;102456.06;;;7.50;64.06
68075;BME280;54864;52.002;5.468;2023-03-04T02:30:28;102452.56;;;7.50;64.29
68075;BME280;54864;52.002;5.468;2023-03-04T02:31:33;102457.75;;;7.60;63.64
68075;BME280;54864;52.002;5.468;2023-03-04T02:32:34;102456.03;;;7.53;63.44
68075;BME280;54864;52.002;5.468;2023-03-04T02:33:35;102460.31;;;7.68;63.13
68075;BME280;54864;52.002;5.468;2023-03-04T02:34:38;102456.91;;;7.54;63.54
68075;BME280;54864;52.002;5.468;2023-03-04T02:35:41;102458.63;;;7.59;62.63
68075;BME280;54864;52.002;5.468;2023-03-04T02:36:43;102459.63;;;7.40;62.77
68075;BME280;54864;52.002;5.468;2023-03-04T02:37:45;102456.19;;;7.32;63.17
68075;BME280;54864;52.002;5.468;2023-03-04T02:38:46;102457.03;;;7.34;63.16
68075;BME280;54864;52.002;5.468;2023-03-04T02:39:49;102453.50;;;7.43;62.81
68075;BME280;54864;52.002;5.468;2023-03-04T02:40:53;102453.50;;;7.41;62.46
68075;BME280;54864;52.002;5.468;2023-03-04T02:41:59;102449.16;;;7.39;62.57
68075;BME280;54864;52.002;5.468;2023-03-04T02:43:00;102450.84;;;7.44;62.59
68075;BME280;54864;52.002;5.468;2023-03-04T02:44:03;102446.59;;;7.26;62.99
68075;BME280;54864;52.002;5.468;2023-03-04T02:45:04;102447.44;;;7.33;63.05
68075;BME280;54864;52.002;5.468;2023-03-04T02:46:09;102448.38;;;7.20;63.04
68075;BME280;54864;52.002;5.468;2023-03-04T02:47:13;102443.91;;;7.34;63.19
68075;BME280;54864;52.002;5.468;2023-03-04T02:48:18;102443.88;;;7.43;62.20
68075;BME280;54864;52.002;5.468;2023-03-04T02:49:20;102442.97;;;7.44;62.50
68075;BME280;54864;52.002;5.468;2023-03-04T02:50:23;102438.59;;;7.46;62.52
68075;BME280;54864;52.002;5.468;2023-03-04T02:51:24;102445.59;;;7.44;62.37
68075;BME280;54864;52.002;5.468;2023-03-04T02:52:26;102447.47;;;7.24;62.17
68075;BME280;54864;52.002;5.468;2023-03-04T02:53:26;102441.28;;;7.37;62.76
68075;BME280;54864;52.002;5.468;2023-03-04T02:54:28;102441.38;;;7.23;62.68
68075;BME280;54864;52.002;5.468;2023-03-04T02:55:29;102435.25;;;7.21;62.77
68075;BME280;54864;52.002;5.468;2023-03-04T02:56:30;102437.03;;;7.16;62.88
68075;BME280;54864;52.002;5.468;2023-03-04T02:57:33;102441.34;;;7.26;63.07
68075;BME280;54864;52.002;5.468;2023-03-04T02:58:34;102439.53;;;7.39;62.45
68075;BME280;54864;52.002;5.468;2023-03-04T02:59:36;102430.84;;;7.29;62.34
68075;BME280;54864;52.002;5.468;2023-03-04T03:00:37;102439.53;;;7.39;62.51
68075;BME280;54864;52.002;5.468;2023-03-04T03:01:39;102433.34;;;7.46;62.61
68075;BME280;54864;52.002;5.468;2023-03-04T03:02:40;102431.59;;;7.48;62.35
68075;BME280;54864;52.002;5.468;2023-03-04T03:03:41;102428.13;;;7.45;62.28
68075;BME280;54864;52.002;5.468;2023-03-04T03:04:42;102434.25;;;7.42;62.37
68075;BME280;54864;52.002;5.468;2023-03-04T03:05:44;102423.66;;;7.57;62.26
68075;BME280;54864;52.002;5.468;2023-03-04T03:06:45;102427.13;;;7.61;61.65
68075;BME280;54864;52.002;5.468;2023-03-04T03:07:47;102432.41;;;7.55;62.28
68075;BME280;54864;52.002;5.468;2023-03-04T03:08:48;102440.44;;;7.30;62.69
68075;BME280;54864;52.002;5.468;2023-03-04T03:09:50;102431.81;;;7.03;63.40
68075;BME280;54864;52.002;5.468;2023-03-04T03:10:50;102434.34;;;7.25;63.31
68075;BME280;54864;52.002;5.468;2023-03-04T03:11:52;102436.09;;;7.26;62.84
68075;BME280;54864;52.002;5.468;2023-03-04T03:12:54;102436.84;;;7.48;62.57
68075;BME280;54864;52.002;5.468;2023-03-04T03:13:56;102428.91;;;7.57;62.00
68075;BME280;54864;52.002;5.468;2023-03-04T03:14:57;102432.50;;;7.44;62.39
68075;BME280;54864;52.002;5.468;2023-03-04T03:15:59;102421.13;;;7.42;62.93
68075;BME280;54864;52.002;5.468;2023-03-04T03:17:01;102428.13;;;7.45;62.60
68075;BME280;54864;52.002;5.468;2023-03-04T03:18:02;102427.31;;;7.35;62.48
68075;BME280;54864;52.002;5.468;2023-03-04T03:19:04;102425.53;;;7.40;62.16
68075;BME280;54864;52.002;5.468;2023-03-04T03:20:06;102421.97;;;7.49;61.96
68075;BME280;54864;52.002;5.468;2023-03-04T03:21:08;102420.28;;;7.37;62.84
68075;BME280;54864;52.002;5.468;2023-03-04T03:22:09;102423.72;;;7.48;62.71
68075;BME280;54864;52.002;5.468;2023-03-04T03:23:10;102430.78;;;7.37;62.58
68075;BME280;54864;52.002;5.468;2023-03-04T03:24:11;102426.50;;;7.21;63.06
68075;BME280;54864;52.002;5.468;2023-03-04T03:25:15;102431.72;;;7.28;63.64
68075;BME280;54864;52.002;5.468;2023-03-04T03:26:17;102417.75;;;7.26;63.07
68075;BME280;54864;52.002;5.468;2023-03-04T03:27:19;102424.78;;;7.17;62.95
68075;BME280;54864;52.002;5.468;2023-03-04T03:28:21;102425.63;;;7.22;62.37
68075;BME280;54864;52.002;5.468;2023-03-04T03:29:23;102417.72;;;7.29;62.00
68075;BME280;54864;52.002;5.468;2023-03-04T03:30:24;102417.72;;;7.29;62.25
68075;BME280;54864;52.002;5.468;2023-03-04T03:31:26;102418.59;;;7.31;62.05
68075;BME280;54864;52.002;5.468;2023-03-04T03:32:27;102416.91;;;7.17;61.87
68075;BME280;54864;52.002;5.468;2023-03-04T03:33:29;102417.84;;;7.04;61.99
68075;BME280;54864;52.002;5.468;2023-03-04T03:34:29;102418.66;;;7.21;62.27
68075;BME280;54864;52.002;5.468;2023-03-04T03:35:31;102418.59;;;7.27;61.79
68075;BME280;54864;52.002;5.468;2023-03-04T03:36:32;102416.81;;;7.32;62.11
68075;BME280;54864;52.002;5.468;2023-03-04T03:37:34;102415.97;;;7.31;62.09
68075;BME280;54864;52.002;5.468;2023-03-04T03:38:35;102415.91;;;7.38;61.47
68075;BME280;54864;52.002;5.468;2023-03-04T03:39:37;102411.56;;;7.34;60.52
68075;BME280;54864;52.002;5.468;2023-03-04T03:40:38;102415.00;;;7.43;61.15
68075;BME280;54864;52.002;5.468;2023-03-04T03:41:40;102417.63;;;7.42;60.90
68075;BME280;54864;52.002;5.468;2023-03-04T03:42:40;102411.50;;;7.43;61.45
68075;BME280;54864;52.002;5.468;2023-03-04T03:43:44;102411.50;;;7.46;61.17
68075;BME280;54864;52.002;5.468;2023-03-04T03:44:44;102410.50;;;7.59;60.20
68075;BME280;54864;52.002;5.468;2023-03-04T03:45:46;102412.25;;;7.60;61.40
68075;BME280;54864;52.002;5.468;2023-03-04T03:46:47;102405.22;;;7.63;60.56
68075;BME280;54864;52.002;5.468;2023-03-04T03:47:49;102416.53;;;7.73;59.61
68075;BME280;54864;52.002;5.468;2023-03-04T03:48:50;102414.72;;;7.78;60.24
68075;BME280;54864;52.002;5.468;2023-03-04T03:49:52;102417.38;;;7.75;60.28
68075;BME280;54864;52.002;5.468;2023-03-04T03:50:52;102416.56;;;7.67;60.24
68075;BME280;54864;52.002;5.468;2023-03-04T03:51:54;102416.63;;;7.61;60.92
68075;BME280;54864;52.002;5.468;2023-03-04T03:52:55;102413.09;;;7.63;60.60
68075;BME280;54864;52.002;5.468;2023-03-04T03:53:57;102413.03;;;7.74;60.36
68075;BME280;54864;52.002;5.468;2023-03-04T03:54:58;102412.09;;;7.83;60.29
68075;BME280;54864;52.002;5.468;2023-03-04T03:56:01;102412.13;;;7.81;59.65
68075;BME280;54864;52.002;5.468;2023-03-04T03:57:02;102421.66;;;7.90;59.58
68075;BME280;54864;52.002;5.468;2023-03-04T03:58:04;102420.72;;;7.97;59.11
68075;BME280;54864;52.002;5.468;2023-03-04T03:59:06;102418.31;;;7.70;60.15
68075;BME280;54864;52.002;5.468;2023-03-04T04:00:09;102419.22;;;7.66;60.63
68075;BME280;54864;52.002;5.468;2023-03-04T04:01:10;102415.63;;;7.76;60.08
68075;BME280;54864;52.002;5.468;2023-03-04T04:02:11;102422.63;;;7.77;60.50
68075;BME280;54864;52.002;5.468;2023-03-04T04:03:13;102413.94;;;7.70;60.34
68075;BME280;54864;52.002;5.468;2023-03-04T04:04:15;102420.00;;;7.75;59.88
68075;BME280;54864;52.002;5.468;2023-03-04T04:05:16;102412.97;;;7.83;60.68
68075;BME280;54864;52.002;5.468;2023-03-04T04:06:18;102419.97;;;7.86;60.16
68075;BME280;54864;52.002;5.468;2023-03-04T04:07:19;102421.66;;;7.90;59.74
68075;BME280;54864;52.002;5.468;2023-03-04T04:08:21;102412.13;;;7.75;60.01
68075;BME280;54864;52.002;5.468;2023-03-04T04:09:22;102420.88;;;7.76;60.11
68075;BME280;54864;52.002;5.468;2023-03-04T04:10:23;102417.38;;;7.75;59.99
68075;BME280;54864;52.002;5.468;2023-03-04T04:11:24;102421.75;;;7.78;60.55
68075;BME280;54864;52.002;5.468;2023-03-04T04:12:26;102417.31;;;7.89;60.73
68075;BME280;54864;52.002;5.468;2023-03-04T04:13:27;102418.22;;;7.83;59.88
68075;BME280;54864;52.002;5.468;2023-03-04T04:14:30;102417.41;;;7.72;60.77
68075;BME280;54864;52.002;5.468;2023-03-04T04:15:31;102417.44;;;7.71;60.67
68075;BME280;54864;52.002;5.468;2023-03-04T04:16:32;102417.47;;;7.64;61.14
68075;BME280;54864;52.002;5.468;2023-03-04T04:17:33;102418.59;;;7.27;61.68
68075;BME280;54864;52.002;5.468;2023-03-04T04:18:35;102417.66;;;7.39;61.98
68075;BME280;54864;52.002;5.468;2023-03-04T04:19:36;102411.44;;;7.50;62.25
68075;BME280;54864;52.002;5.468;2023-03-04T04:20:39;102424.47;;;7.66;61.51
68075;BME280;54864;52.002;5.468;2023-03-04T04:21:40;102420.13;;;7.61;61.81
68075;BME280;54864;52.002;5.468;2023-03-04T04:22:42;102419.28;;;7.58;61.20
68075;BME280;54864;52.002;5.468;2023-03-04T04:23:43;102420.28;;;7.37;62.07
68075;BME280;54864;52.002;5.468;2023-03-04T04:24:44;102423.75;;;7.45;62.25
68075;BME280;54864;52.002;5.468;2023-03-04T04:25:45;102424.72;;;7.29;62.68
68075;BME280;54864;52.002;5.468;2023-03-04T04:26:47;102422.13;;;7.26;62.68
68075;BME280;54864;52.002;5.468;2023-03-04T04:27:48;102426.50;;;7.25;63.21
68075;BME280;54864;52.002;5.468;2023-03-04T04:28:49;102426.44;;;7.33;63.23
68075;BME280;54864;52.002;5.468;2023-03-04T04:29:51;102423.03;;;7.14;63.46
68075;BME280;54864;52.002;5.468;2023-03-04T04:30:53;102427.34;;;7.26;63.85
68075;BME280;54864;52.002;5.468;2023-03-04T04:31:54;102431.75;;;7.22;63.48
68075;BME280;54864;52.002;5.468;2023-03-04T04:32:55;102424.72;;;7.27;63.93
68075;BME280;54864;52.002;5.468;2023-03-04T04:34:00;102429.97;;;7.27;64.11
68075;BME280;54864;52.002;5.468;2023-03-04T04:35:02;102423.88;;;7.22;64.38
68075;BME280;54864;52.002;5.468;2023-03-04T04:36:04;102425.59;;;7.29;64.43
68075;BME280;54864;52.002;5.468;2023-03-04T04:37:06;102429.94;;;7.34;65.07
68075;BME280;54864;52.002;5.468;2023-03-04T04:38:08;102434.31;;;7.33;65.09
68075;BME280;54864;52.002;5.468;2023-03-04T04:39:09;102433.44;;;7.31;65.17
68075;BME280;54864;52.002;5.468;2023-03-04T04:40:11;102435.16;;;7.40;65.02
68075;BME280;54864;52.002;5.468;2023-03-04T04:41:18;102434.28;;;7.39;65.35
68075;BME280;54864;52.002;5.468;2023-03-04T04:42:21;102433.47;;;7.29;65.57
68075;BME280;54864;52.002;5.468;2023-03-04T04:43:22;102434.38;;;7.21;66.04
68075;BME280;54864;52.002;5.468;2023-03-04T04:44:23;102427.38;;;7.21;66.54
68075;BME280;54864;52.002;5.468;2023-03-04T04:45:26;102430.81;;;7.31;65.42
68075;BME280;54864;52.002;5.468;2023-03-04T04:46:28;102433.38;;;7.43;65.67
68075;BME280;54864;52.002;5.468;2023-03-04T04:47:29;102429.94;;;7.34;65.71
68075;BME280;54864;52.002;5.468;2023-03-04T04:48:31;102421.97;;;7.47;65.73
68075;BME280;54864;52.002;5.468;2023-03-04T04:49:32;102422.91;;;7.39;65.52
68075;BME280;54864;52.002;5.468;2023-03-04T04:50:33;102435.94;;;7.51;65.35
68075;BME280;54864;52.002;5.468;2023-03-04T04:51:35;102428.94;;;7.50;64.92
68075;BME280;54864;52.002;5.468;2023-03-04T04:52:37;102420.16;;;7.57;65.15
68075;BME280;54864;52.002;5.468;2023-03-04T04:53:38;102427.13;;;7.59;64.98
68075;BME280;54864;52.002;5.468;2023-03-04T04:54:39;102423.63;;;7.59;65.29
68075;BME280;54864;52.002;5.468;2023-03-04T04:55:40;102423.69;;;7.51;64.63
68075;BME280;54864;52.002;5.468;2023-03-04T04:56:42;102423.72;;;7.48;65.17
68075;BME280;54864;52.002;5.468;2023-03-04T04:57:43;102426.38;;;7.41;65.48
68075;BME280;54864;52.002;5.468;2023-03-04T04:58:45;102421.94;;;7.52;64.88
68075;BME280;54864;52.002;5.468;2023-03-04T04:59:46;102426.22;;;7.63;65.16
68075;BME280;54864;52.002;5.468;2023-03-04T05:00:49;102429.66;;;7.72;64.65
68075;BME280;54864;52.002;5.468;2023-03-04T05:01:50;102427.97;;;7.66;64.16
68075;BME280;54864;52.002;5.468;2023-03-04T05:02:52;102431.66;;;7.38;65.29
68075;BME280;54864;52.002;5.468;2023-03-04T05:03:53;102425.53;;;7.40;65.03
68075;BME280;54864;52.002;5.468;2023-03-04T05:04:54;102435.13;;;7.43;65.15
68075;BME280;54864;52.002;5.468;2023-03-04T05:05:55;102428.28;;;7.16;65.90
68075;BME280;54864;52.002;5.468;2023-03-04T05:06:57;102429.06;;;7.35;66.21
68075;BME280;54864;52.002;5.468;2023-03-04T05:07:59;102427.25;;;7.41;65.47
68075;BME280;54864;52.002;5.468;2023-03-04T05:09:00;102422.88;;;7.42;65.37
68075;BME280;54864;52.002;5.468;2023-03-04T05:10:02;102423.66;;;7.54;64.97
68075;BME280;54864;52.002;5.468;2023-03-04T05:11:03;102423.66;;;7.57;65.29
68075;BME280;54864;52.002;5.468;2023-03-04T05:12:05;102414.09;;;7.46;65.01
68075;BME280;54864;52.002;5.468;2023-03-04T05:13:06;102415.81;;;7.51;64.99
68075;BME280;54864;52.002;5.468;2023-03-04T05:14:08;102429.00;;;7.41;64.59
68075;BME280;54864;52.002;5.468;2023-03-04T05:15:09;102422.91;;;7.39;64.77
68075;BME280;54864;52.002;5.468;2023-03-04T05:16:13;102430.00;;;7.23;64.90
68075;BME280;54864;52.002;5.468;2023-03-04T05:17:14;102424.81;;;7.05;64.83
68075;BME280;54864;52.002;5.468;2023-03-04T05:18:15;102423.91;;;7.18;65.17
68075;BME280;54864;52.002;5.468;2023-03-04T05:19:16;102429.16;;;7.09;64.68
68075;BME280;54864;52.002;5.468;2023-03-04T05:20:18;102427.53;;;6.89;65.50
68075;BME280;54864;52.002;5.468;2023-03-04T05:21:19;102423.94;;;7.06;64.91
68075;BME280;54864;52.002;5.468;2023-03-04T05:22:21;102425.66;;;7.14;65.11
68075;BME280;54864;52.002;5.468;2023-03-04T05:23:22;102427.38;;;7.21;64.31
68075;BME280;54864;52.002;5.468;2023-03-04T05:24:24;102428.25;;;7.20;64.57
68075;BME280;54864;52.002;5.468;2023-03-04T05:25:25;102428.28;;;7.16;64.64
68075;BME280;54864;52.002;5.468;2023-03-04T05:26:27;102425.63;;;7.22;64.68
68075;BME280;54864;52.002;5.468;2023-03-04T05:27:28;102431.72;;;7.30;64.50